createdAt,value
2017-09-15T00:01:19.921Z,4.30
2017-09-15T00:03:51.341Z,3.97
2017-09-15T00:06:20.784Z,3.60
2017-09-15T00:08:57.298Z,3.53
2017-09-15T00:11:26.845Z,3.77
2017-09-15T00:13:58.083Z,3.97
2017-09-15T00:16:27.521Z,4.10
2017-09-15T00:18:57.124Z,3.77
2017-09-15T00:21:38.630Z,3.47
2017-09-15T00:24:15.844Z,4.27
2017-09-15T00:26:45.283Z,5.30
2017-09-15T00:29:14.732Z,4.40
2017-09-15T00:31:44.143Z,4.50
2017-09-15T00:34:13.937Z,3.83
2017-09-15T00:36:43.403Z,3.87
2017-09-15T00:39:12.862Z,3.10
2017-09-15T00:41:42.441Z,3.67
2017-09-15T00:44:11.901Z,3.60
2017-09-15T00:46:41.386Z,4.37
2017-09-15T00:49:10.867Z,3.30
2017-09-15T00:51:40.384Z,3.83
2017-09-15T00:54:10.007Z,4.43
2017-09-15T00:56:39.553Z,4.73
2017-09-15T00:59:09.007Z,3.83
2017-09-15T01:01:46.581Z,3.70
2017-09-15T01:04:16.068Z,4.20
2017-09-15T01:06:45.523Z,4.00
2017-09-15T01:09:15.000Z,3.93
2017-09-15T01:11:44.425Z,4.70
2017-09-15T01:14:13.999Z,4.50
2017-09-15T01:16:46.546Z,4.40
2017-09-15T01:19:16.009Z,4.20
2017-09-15T01:21:46.971Z,4.50
2017-09-15T01:24:16.408Z,3.50
2017-09-15T01:26:45.954Z,4.10
2017-09-15T01:29:15.638Z,4.30
2017-09-15T01:31:45.077Z,4.77
2017-09-15T01:34:14.483Z,4.17
2017-09-15T01:36:44.362Z,4.23
2017-09-15T01:39:13.952Z,4.70
2017-09-15T01:41:50.785Z,4.43
2017-09-15T01:44:21.548Z,5.33
2017-09-15T01:46:51.168Z,5.00
2017-09-15T01:49:20.547Z,4.40
2017-09-15T01:51:50.034Z,4.40
2017-09-15T01:54:19.793Z,5.00
2017-09-15T01:56:49.237Z,4.63
2017-09-15T01:59:24.829Z,5.20
2017-09-15T02:02:00.863Z,3.90
2017-09-15T02:04:35.061Z,3.73
2017-09-15T02:07:05.982Z,3.80
2017-09-15T02:09:35.550Z,4.70
2017-09-15T02:12:05.126Z,5.10
2017-09-15T02:14:35.578Z,3.67
2017-09-15T02:17:06.113Z,3.80
2017-09-15T02:19:35.689Z,3.80
2017-09-15T02:22:05.299Z,4.00
2017-09-15T02:24:34.947Z,4.30
2017-09-15T02:27:10.730Z,4.47
2017-09-15T02:29:40.943Z,4.10
2017-09-15T02:32:10.490Z,4.60
2017-09-15T02:34:41.421Z,3.80
2017-09-15T02:37:10.917Z,4.23
2017-09-15T02:39:46.803Z,4.00
2017-09-15T02:42:16.477Z,3.87
2017-09-15T02:44:46.075Z,5.97
2017-09-15T02:47:15.658Z,5.20
2017-09-15T02:49:45.215Z,5.40
2017-09-15T02:52:14.736Z,4.90
2017-09-15T02:54:44.373Z,5.10
2017-09-15T02:57:14.061Z,4.60
2017-09-15T02:59:57.157Z,4.30
2017-09-15T03:02:26.633Z,5.17
2017-09-15T03:04:56.423Z,4.27
2017-09-15T03:07:25.931Z,4.50
2017-09-15T03:09:55.380Z,5.33
2017-09-15T03:12:37.327Z,4.50
2017-09-15T03:15:20.936Z,6.87
2017-09-15T03:17:50.363Z,6.20
2017-09-15T03:20:24.309Z,5.00
2017-09-15T03:22:53.749Z,4.90
2017-09-15T03:25:23.222Z,5.83
2017-09-15T03:27:52.691Z,5.23
2017-09-15T03:30:22.193Z,6.07
2017-09-15T03:32:51.642Z,8.20
2017-09-15T03:35:21.090Z,5.07
2017-09-15T03:37:50.533Z,4.17
2017-09-15T03:40:19.956Z,4.37
2017-09-15T03:42:58.502Z,4.57
2017-09-15T03:45:28.077Z,6.90
2017-09-15T03:48:06.297Z,7.20
2017-09-15T03:50:35.873Z,6.73
2017-09-15T03:53:12.965Z,5.17
2017-09-15T03:55:42.492Z,5.20
2017-09-15T03:58:12.076Z,5.20
2017-09-15T04:00:41.518Z,4.33
2017-09-15T04:03:11.090Z,4.30
2017-09-15T04:05:40.556Z,3.57
2017-09-15T04:08:09.979Z,4.13
2017-09-15T04:10:39.581Z,3.90
2017-09-15T04:13:10.465Z,4.60
2017-09-15T04:15:39.912Z,4.70
2017-09-15T04:18:25.980Z,5.33
2017-09-15T04:20:55.586Z,5.30
2017-09-15T04:23:25.715Z,6.00
2017-09-15T04:25:55.163Z,4.10
2017-09-15T04:28:24.759Z,5.37
2017-09-15T04:30:54.514Z,4.00
2017-09-15T04:33:23.976Z,6.30
2017-09-15T04:35:53.404Z,6.13
2017-09-15T04:38:29.854Z,5.50
2017-09-15T04:40:59.409Z,7.37
2017-09-15T04:43:29.708Z,13.20
2017-09-15T04:45:59.134Z,10.63
2017-09-15T04:48:28.562Z,8.27
2017-09-15T04:50:57.975Z,7.80
2017-09-15T04:53:27.457Z,7.97
2017-09-15T04:55:56.926Z,9.30
2017-09-15T04:58:27.732Z,6.70
2017-09-15T05:00:57.259Z,7.37
2017-09-15T05:03:26.750Z,6.60
2017-09-15T05:05:56.212Z,8.03
2017-09-15T05:08:25.709Z,6.67
2017-09-15T05:10:55.229Z,5.20
2017-09-15T05:13:24.646Z,6.70
2017-09-15T05:15:54.064Z,6.50
2017-09-15T05:18:23.623Z,6.40
2017-09-15T05:20:53.074Z,8.50
2017-09-15T05:23:22.494Z,8.20
2017-09-15T05:25:51.925Z,5.10
2017-09-15T05:28:21.475Z,6.07
2017-09-15T05:30:51.033Z,8.23
2017-09-15T05:33:20.442Z,5.40
2017-09-15T05:35:50.556Z,6.30
2017-09-15T05:38:20.227Z,7.00
2017-09-15T05:40:49.803Z,5.73
2017-09-15T05:43:34.564Z,8.00
2017-09-15T05:46:04.091Z,4.30
2017-09-15T05:48:33.507Z,4.07
2017-09-15T05:51:03.122Z,3.90
2017-09-15T05:53:32.561Z,4.00
2017-09-15T05:56:15.131Z,5.20
2017-09-15T05:58:44.579Z,5.67
2017-09-15T06:01:14.026Z,5.33
2017-09-15T06:03:46.544Z,6.60
2017-09-15T06:06:16.045Z,5.40
2017-09-15T06:08:45.612Z,7.00
2017-09-15T06:11:15.057Z,5.43
2017-09-15T06:13:44.784Z,4.23
2017-09-15T06:16:14.272Z,3.97
2017-09-15T06:18:43.769Z,4.17
2017-09-15T06:21:13.252Z,4.03
2017-09-15T06:23:42.714Z,3.80
2017-09-15T06:26:12.288Z,3.73
2017-09-15T06:28:41.745Z,5.33
2017-09-15T06:31:11.278Z,5.70
2017-09-15T06:33:40.838Z,3.77
2017-09-15T06:36:16.768Z,9.03
2017-09-15T06:38:47.011Z,6.27
2017-09-15T06:41:16.509Z,4.23
2017-09-15T06:43:47.987Z,5.30
2017-09-15T06:46:22.454Z,4.50
2017-09-15T06:48:51.896Z,5.43
2017-09-15T06:51:35.311Z,4.23
2017-09-15T06:54:05.635Z,2.53
2017-09-15T06:56:50.251Z,2.90
2017-09-15T06:59:20.661Z,4.17
2017-09-15T07:01:50.349Z,3.47
2017-09-15T07:04:20.209Z,4.23
2017-09-15T07:06:50.238Z,3.60
2017-09-15T07:09:19.799Z,3.30
2017-09-15T07:12:06.536Z,2.40
2017-09-15T07:14:36.947Z,4.27
2017-09-15T07:17:12.667Z,4.43
2017-09-15T07:19:56.651Z,3.63
2017-09-15T07:22:26.134Z,3.20
2017-09-15T07:24:59.403Z,2.63
2017-09-15T07:27:28.999Z,2.67
2017-09-15T07:30:13.559Z,3.20
2017-09-15T07:32:44.150Z,3.07
2017-09-15T07:35:13.866Z,2.87
2017-09-15T07:37:57.449Z,3.23
2017-09-15T07:40:32.496Z,3.10
2017-09-15T07:43:02.773Z,2.43
2017-09-15T07:45:32.403Z,2.63
2017-09-15T07:48:01.909Z,3.90
2017-09-15T07:50:47.396Z,3.70
2017-09-15T07:53:17.019Z,3.80
2017-09-15T07:55:59.988Z,2.97
2017-09-15T07:58:44.986Z,3.20
2017-09-15T08:01:14.558Z,6.13
2017-09-15T08:03:44.105Z,2.70
2017-09-15T08:06:26.819Z,2.90
2017-09-15T08:09:03.716Z,3.33
2017-09-15T08:11:34.271Z,4.03
2017-09-15T08:14:04.030Z,3.20
2017-09-15T08:16:35.415Z,2.50
2017-09-15T08:19:04.961Z,2.37
2017-09-15T08:21:34.578Z,3.13
2017-09-15T08:24:04.229Z,2.73
2017-09-15T08:26:33.746Z,4.63
2017-09-15T08:29:03.189Z,3.27
2017-09-15T08:31:32.705Z,3.47
2017-09-15T08:34:02.313Z,5.17
2017-09-15T08:36:31.769Z,2.80
2017-09-15T08:39:01.237Z,3.73
2017-09-15T08:41:30.638Z,3.63
2017-09-15T08:44:00.349Z,3.73
2017-09-15T08:46:30.212Z,3.53
2017-09-15T08:48:59.800Z,3.23
2017-09-15T08:51:41.398Z,3.20
2017-09-15T08:54:10.910Z,2.73
2017-09-15T08:56:40.380Z,2.90
2017-09-15T08:59:15.971Z,2.50
2017-09-15T09:01:45.465Z,1.97
2017-09-15T09:04:14.970Z,2.50
2017-09-15T09:06:44.485Z,3.07
2017-09-15T09:09:13.899Z,2.80
2017-09-15T09:11:43.432Z,5.60
2017-09-15T09:14:12.876Z,4.60
2017-09-15T09:16:42.603Z,2.33
2017-09-15T09:19:12.261Z,2.40
2017-09-15T09:21:41.706Z,5.83
2017-09-15T09:24:18.161Z,2.40
2017-09-15T09:26:55.489Z,2.50
2017-09-15T09:29:25.036Z,2.73
2017-09-15T09:31:54.755Z,2.57
2017-09-15T09:34:24.437Z,2.93
2017-09-15T09:36:53.897Z,3.10
2017-09-15T09:39:25.886Z,1.87
2017-09-15T09:41:56.213Z,3.00
2017-09-15T09:44:25.805Z,3.10
2017-09-15T09:46:55.460Z,2.40
2017-09-15T09:49:40.906Z,2.73
2017-09-15T09:52:10.350Z,3.17
2017-09-15T09:54:39.905Z,2.20
2017-09-15T09:57:20.338Z,2.37
2017-09-15T09:59:49.840Z,2.20
2017-09-15T10:02:19.570Z,3.00
2017-09-15T10:04:50.080Z,2.43
2017-09-15T10:07:21.385Z,2.00
2017-09-15T10:09:56.905Z,2.20
2017-09-15T10:12:26.447Z,2.00
2017-09-15T10:14:56.122Z,2.27
2017-09-15T10:17:25.563Z,2.37
2017-09-15T10:19:55.045Z,2.83
2017-09-15T10:22:24.945Z,2.63
2017-09-15T10:24:54.393Z,2.80
2017-09-15T10:27:23.833Z,1.73
2017-09-15T10:29:53.271Z,2.00
2017-09-15T10:32:25.897Z,1.90
2017-09-15T10:34:55.441Z,2.40
2017-09-15T10:37:24.956Z,2.40
2017-09-15T10:39:54.427Z,2.10
2017-09-15T10:42:23.872Z,1.90
2017-09-15T10:44:53.586Z,1.53
2017-09-15T10:47:35.740Z,1.80
2017-09-15T10:50:05.182Z,1.40
2017-09-15T10:52:34.765Z,2.37
2017-09-15T10:55:04.327Z,1.90
2017-09-15T10:57:39.566Z,2.07
2017-09-15T11:00:12.936Z,1.80
2017-09-15T11:02:42.406Z,2.30
2017-09-15T11:05:11.971Z,3.53
2017-09-15T11:07:41.426Z,2.37
2017-09-15T11:10:10.901Z,2.60
2017-09-15T11:12:40.596Z,3.30
2017-09-15T11:15:10.060Z,4.13
2017-09-15T11:17:39.824Z,3.20
2017-09-15T11:20:22.072Z,3.70
2017-09-15T11:22:51.966Z,3.23
2017-09-15T11:25:28.733Z,3.00
2017-09-15T11:27:58.186Z,2.20
2017-09-15T11:30:34.992Z,2.17
2017-09-15T11:33:18.071Z,2.83
2017-09-15T11:35:47.651Z,2.00
2017-09-15T11:38:17.146Z,3.30
2017-09-15T11:40:46.881Z,1.70
2017-09-15T11:43:25.700Z,2.70
2017-09-15T11:45:55.159Z,3.57
2017-09-15T11:48:24.629Z,2.43
2017-09-15T11:50:55.654Z,2.90
2017-09-15T11:53:25.283Z,2.57
2017-09-15T11:55:55.124Z,2.30
2017-09-15T11:58:24.637Z,2.17
2017-09-15T12:00:54.073Z,1.73
2017-09-15T12:03:36.276Z,2.10
2017-09-15T12:06:05.830Z,1.93
2017-09-15T12:08:35.247Z,1.90
2017-09-15T12:11:04.650Z,1.97
2017-09-15T12:13:34.061Z,2.57
2017-09-15T12:16:03.559Z,2.23
2017-09-15T12:18:32.988Z,2.80
2017-09-15T12:21:09.946Z,2.10
2017-09-15T12:23:39.508Z,2.53
2017-09-15T12:26:08.915Z,2.60
2017-09-15T12:28:38.359Z,1.67
2017-09-15T12:31:07.773Z,2.03
2017-09-15T12:33:37.385Z,1.80
2017-09-15T12:36:06.901Z,2.20
2017-09-15T12:38:49.621Z,2.13
2017-09-15T12:41:19.159Z,2.40
2017-09-15T12:44:02.024Z,1.87
2017-09-15T12:46:31.775Z,2.20
2017-09-15T12:49:01.277Z,2.23
2017-09-15T12:51:30.708Z,2.70
2017-09-15T12:54:00.133Z,3.40
2017-09-15T12:56:43.016Z,3.40
2017-09-15T12:59:12.458Z,2.80
2017-09-15T13:01:42.001Z,2.80
2017-09-15T13:04:17.104Z,3.57
2017-09-15T13:06:46.545Z,2.60
2017-09-15T13:09:16.132Z,2.50
2017-09-15T13:11:45.774Z,2.60
2017-09-15T13:14:15.222Z,2.50
2017-09-15T13:16:57.909Z,3.90
2017-09-15T13:19:27.372Z,1.80
2017-09-15T13:21:56.946Z,1.97
2017-09-15T13:24:26.596Z,1.70
2017-09-15T13:26:56.273Z,2.00
2017-09-15T13:29:26.381Z,2.50
2017-09-15T13:31:55.838Z,2.43
2017-09-15T13:34:25.256Z,3.00
2017-09-15T13:37:08.915Z,2.60
2017-09-15T13:39:38.347Z,1.73
2017-09-15T13:42:07.885Z,2.93
2017-09-15T13:44:37.411Z,2.83
2017-09-15T13:47:06.840Z,3.90
2017-09-15T13:49:38.208Z,1.87
2017-09-15T13:52:07.843Z,3.20
2017-09-15T13:54:37.682Z,2.30
2017-09-15T13:57:07.133Z,1.57
2017-09-15T13:59:44.345Z,2.07
2017-09-15T14:02:14.029Z,1.93
2017-09-15T14:04:49.663Z,1.73
2017-09-15T14:07:19.101Z,1.87
2017-09-15T14:10:03.850Z,3.37
2017-09-15T14:12:33.442Z,2.60
2017-09-15T14:15:02.901Z,2.90
2017-09-15T14:17:32.342Z,1.87
2017-09-15T14:20:13.849Z,1.93
2017-09-15T14:22:43.280Z,2.13
2017-09-15T14:25:12.694Z,2.60
2017-09-15T14:27:42.316Z,1.43
2017-09-15T14:30:11.790Z,2.17
2017-09-15T14:32:47.321Z,1.93
2017-09-15T14:35:31.259Z,1.87
2017-09-15T14:38:00.887Z,1.77
2017-09-15T14:40:32.197Z,1.20
2017-09-15T14:43:01.698Z,3.23
2017-09-15T14:45:38.402Z,1.70
2017-09-15T14:48:07.876Z,2.23
2017-09-15T14:50:37.345Z,3.63
2017-09-15T14:53:20.218Z,1.83
2017-09-15T14:55:58.165Z,1.40
2017-09-15T14:58:27.583Z,1.80
2017-09-15T15:00:57.034Z,2.23
2017-09-15T15:03:33.117Z,1.90
2017-09-15T15:06:02.863Z,2.13
2017-09-15T15:08:39.982Z,1.90
2017-09-15T15:11:09.415Z,2.50
2017-09-15T15:13:38.884Z,2.60
2017-09-15T15:16:08.356Z,2.20
2017-09-15T15:18:38.012Z,2.10
2017-09-15T15:21:07.567Z,2.00
2017-09-15T15:23:37.028Z,2.40
2017-09-15T15:26:06.483Z,2.23
2017-09-15T15:28:36.030Z,2.60
2017-09-15T15:31:05.458Z,1.90
2017-09-15T15:33:34.956Z,4.40
2017-09-15T15:36:04.376Z,2.13
2017-09-15T15:38:34.957Z,2.10
2017-09-15T15:41:04.638Z,2.50
2017-09-15T15:43:42.601Z,2.20
2017-09-15T15:46:12.412Z,3.30
2017-09-15T15:48:41.879Z,2.60
2017-09-15T15:51:11.599Z,2.93
2017-09-15T15:53:41.032Z,2.60
2017-09-15T15:56:23.480Z,2.83
2017-09-15T15:58:52.972Z,3.07
2017-09-15T16:01:22.762Z,3.50
2017-09-15T16:03:56.315Z,2.43
2017-09-15T16:06:38.354Z,3.13
2017-09-15T16:09:08.039Z,2.90
2017-09-15T16:11:37.895Z,2.63
2017-09-15T16:14:07.618Z,3.00
2017-09-15T16:16:37.246Z,3.00
2017-09-15T16:19:07.576Z,3.20
2017-09-15T16:21:38.230Z,2.50
2017-09-15T16:24:07.894Z,3.07
2017-09-15T16:26:37.596Z,2.47
2017-09-15T16:29:07.169Z,2.20
2017-09-15T16:31:36.935Z,2.93
2017-09-15T16:34:06.362Z,2.80
2017-09-15T16:36:51.015Z,3.60
2017-09-15T16:39:34.076Z,3.60
2017-09-15T16:42:25.760Z,4.20
2017-09-15T16:45:01.219Z,4.33
2017-09-15T16:47:36.571Z,3.90
2017-09-15T16:50:06.054Z,3.17
2017-09-15T16:52:35.572Z,3.10
2017-09-15T16:55:14.378Z,3.00
2017-09-15T16:57:44.073Z,3.50
2017-09-15T17:00:13.710Z,3.07
2017-09-15T17:02:43.228Z,3.50
2017-09-15T17:05:12.693Z,3.50
2017-09-15T17:07:50.398Z,4.53
2017-09-15T17:10:20.830Z,4.40
2017-09-15T17:12:50.368Z,4.40
2017-09-15T17:15:19.776Z,3.37
2017-09-15T17:18:03.419Z,4.33
2017-09-15T17:20:33.089Z,4.10
2017-09-15T17:23:18.394Z,4.73
2017-09-15T17:25:48.073Z,4.47
2017-09-15T17:28:17.471Z,4.57
2017-09-15T17:30:46.905Z,4.10
2017-09-15T17:33:16.355Z,4.30
2017-09-15T17:35:46.027Z,4.60
2017-09-15T17:38:15.654Z,4.50
2017-09-15T17:40:45.131Z,4.20
2017-09-15T17:43:14.541Z,4.10
2017-09-15T17:45:44.870Z,5.33
2017-09-15T17:48:27.316Z,5.50
2017-09-15T17:50:56.784Z,5.00
2017-09-15T17:53:27.564Z,5.03
2017-09-15T17:55:57.091Z,5.33
2017-09-15T17:58:26.543Z,5.90
2017-09-15T18:00:56.007Z,5.53
2017-09-15T18:03:25.438Z,3.63
2017-09-15T18:05:55.188Z,4.40
2017-09-15T18:08:24.718Z,5.47
2017-09-15T18:11:01.585Z,4.77
2017-09-15T18:13:30.997Z,4.30
2017-09-15T18:16:08.589Z,3.40
2017-09-15T18:18:38.047Z,3.70
2017-09-15T18:21:14.125Z,4.60
2017-09-15T18:23:55.798Z,2.60
2017-09-15T18:26:25.857Z,2.73
2017-09-15T18:29:10.263Z,3.00
2017-09-15T18:31:39.917Z,3.70
2017-09-15T18:34:09.319Z,4.53
2017-09-15T18:36:38.951Z,3.70
2017-09-15T18:39:08.381Z,3.73
2017-09-15T18:41:38.781Z,3.80
2017-09-15T18:44:08.576Z,4.20
2017-09-15T18:46:37.982Z,4.10
2017-09-15T18:49:07.784Z,4.47
2017-09-15T18:51:37.321Z,3.90
2017-09-15T18:54:06.880Z,4.43
2017-09-15T18:56:36.538Z,3.47
2017-09-15T18:59:05.998Z,3.37
2017-09-15T19:01:35.534Z,3.00
2017-09-15T19:04:12.078Z,3.60
2017-09-15T19:06:47.765Z,3.60
2017-09-15T19:09:17.205Z,2.90
2017-09-15T19:11:46.686Z,2.50
2017-09-15T19:14:22.871Z,3.53
2017-09-15T19:16:52.458Z,2.63
2017-09-15T19:19:22.526Z,2.70
2017-09-15T19:21:52.474Z,2.70
2017-09-15T19:24:22.028Z,3.13
2017-09-15T19:26:51.475Z,3.00
2017-09-15T19:29:21.125Z,2.80
2017-09-15T19:31:50.586Z,2.60
2017-09-15T19:34:20.170Z,2.20
2017-09-15T19:36:49.996Z,1.90
2017-09-15T19:39:19.472Z,1.90
2017-09-15T19:41:49.042Z,2.00
2017-09-15T19:44:18.622Z,1.70
2017-09-15T19:46:48.043Z,1.80
2017-09-15T19:49:31.187Z,2.10
2017-09-15T19:52:13.928Z,1.87
2017-09-15T19:54:43.428Z,1.80
2017-09-15T19:57:20.972Z,1.90
2017-09-15T19:59:50.443Z,1.57
2017-09-15T20:02:19.994Z,2.10
2017-09-15T20:04:49.676Z,1.30
2017-09-15T20:07:19.148Z,1.50
2017-09-15T20:10:01.779Z,1.73
2017-09-15T20:12:38.576Z,1.40
2017-09-15T20:15:08.586Z,1.60
2017-09-15T20:17:38.070Z,1.30
2017-09-15T20:20:14.347Z,1.60
2017-09-15T20:22:44.861Z,1.40
2017-09-15T20:25:14.380Z,1.57
2017-09-15T20:27:51.817Z,1.87
2017-09-15T20:30:21.409Z,1.13
2017-09-15T20:32:50.958Z,1.57
2017-09-15T20:35:20.606Z,1.20
2017-09-15T20:37:50.483Z,1.40
2017-09-15T20:40:19.953Z,1.43
2017-09-15T20:42:49.489Z,1.30
2017-09-15T20:45:25.293Z,1.50
2017-09-15T20:48:09.014Z,1.40
2017-09-15T20:50:38.979Z,1.40
2017-09-15T20:53:09.186Z,1.40
2017-09-15T20:55:38.744Z,1.47
2017-09-15T20:58:09.063Z,1.50
2017-09-15T21:00:39.633Z,1.30
2017-09-15T21:03:09.125Z,1.50
2017-09-15T21:05:38.946Z,1.57
2017-09-15T21:08:09.801Z,1.50
2017-09-15T21:10:39.357Z,1.50
2017-09-15T21:13:09.228Z,1.50
2017-09-15T21:15:53.120Z,1.80
2017-09-15T21:18:22.648Z,1.67
2017-09-15T21:20:52.530Z,1.60
2017-09-15T21:23:34.385Z,1.50
2017-09-15T21:26:03.920Z,1.30
2017-09-15T21:28:34.232Z,1.60
2017-09-15T21:31:03.884Z,1.90
2017-09-15T21:33:34.432Z,1.90
2017-09-15T21:36:04.267Z,1.93
2017-09-15T21:38:33.818Z,1.90
2017-09-15T21:41:04.414Z,1.77
2017-09-15T21:43:34.076Z,1.70
2017-09-15T21:46:03.907Z,1.57
2017-09-15T21:48:42.922Z,1.77
2017-09-15T21:51:12.819Z,1.67
2017-09-15T21:53:46.607Z,1.70
2017-09-15T21:56:16.167Z,1.53
2017-09-15T21:58:45.611Z,1.50
2017-09-15T22:01:15.763Z,1.60
2017-09-15T22:03:51.002Z,1.50
2017-09-15T22:06:20.701Z,1.70
2017-09-15T22:08:50.411Z,1.60
2017-09-15T22:11:34.786Z,1.57
2017-09-15T22:14:04.347Z,1.40
2017-09-15T22:16:33.940Z,1.43
2017-09-15T22:19:03.907Z,1.67
2017-09-15T22:21:40.851Z,1.70
2017-09-15T22:24:10.355Z,1.43
2017-09-15T22:26:39.855Z,1.70
2017-09-15T22:29:09.265Z,1.77
2017-09-15T22:31:38.718Z,1.40
2017-09-15T22:34:08.125Z,1.60
2017-09-15T22:36:37.611Z,1.40
2017-09-15T22:39:07.047Z,1.40
2017-09-15T22:41:49.759Z,1.10
2017-09-15T22:44:19.214Z,1.50
2017-09-15T22:46:48.766Z,1.43
2017-09-15T22:49:18.451Z,1.33
2017-09-15T22:51:55.726Z,1.23
2017-09-15T22:54:31.217Z,1.50
2017-09-15T22:57:00.672Z,1.30
2017-09-15T22:59:30.287Z,1.30
2017-09-15T23:01:59.717Z,1.50
2017-09-15T23:04:29.176Z,1.40
2017-09-15T23:06:58.583Z,1.60
2017-09-15T23:09:28.674Z,1.50
2017-09-15T23:12:05.902Z,1.90
2017-09-15T23:14:35.520Z,1.60
2017-09-15T23:17:11.486Z,1.30
2017-09-15T23:19:42.337Z,1.50
2017-09-15T23:22:11.968Z,1.60
2017-09-15T23:24:41.433Z,1.50
2017-09-15T23:27:10.993Z,1.67
2017-09-15T23:29:40.494Z,1.33
2017-09-15T23:32:10.027Z,1.90
2017-09-15T23:34:40.826Z,1.87
2017-09-15T23:37:10.295Z,1.70
2017-09-15T23:39:39.769Z,1.90
2017-09-15T23:42:09.256Z,2.17
2017-09-15T23:44:38.825Z,1.90
2017-09-15T23:47:21.458Z,2.03
2017-09-15T23:49:50.898Z,2.07
2017-09-15T23:52:20.318Z,1.97
2017-09-15T23:54:49.738Z,2.00
2017-09-15T23:57:26.847Z,1.90
2017-09-15T23:59:56.363Z,2.07
